createdAt,value
2018-12-31T08:06:33.152Z,81.53
2018-12-31T08:08:38.782Z,67.20
2018-12-31T08:10:43.947Z,80.77
2018-12-31T08:12:49.168Z,80.50
2018-12-31T08:14:54.249Z,97.73
2018-12-31T08:16:59.800Z,92.27
2018-12-31T08:19:35.684Z,87.30
2018-12-31T08:21:59.204Z,87.00
2018-12-31T08:24:04.509Z,81.63
2018-12-31T08:26:09.742Z,107.47
2018-12-31T08:28:14.889Z,89.10
2018-12-31T08:30:20.117Z,83.40
2018-12-31T08:32:25.392Z,111.73
2018-12-31T08:34:31.102Z,90.67
2018-12-31T08:36:36.699Z,112.20
2018-12-31T08:38:42.122Z,107.33
2018-12-31T08:40:47.322Z,102.63
2018-12-31T08:42:52.332Z,101.63
2018-12-31T08:44:57.462Z,101.70
2018-12-31T08:47:02.632Z,84.97
2018-12-31T08:49:08.155Z,95.87
2018-12-31T08:51:13.244Z,91.97
2018-12-31T08:53:18.339Z,115.77
2018-12-31T08:55:23.454Z,95.00
2018-12-31T08:57:28.702Z,92.33
2018-12-31T08:59:33.776Z,89.30
2018-12-31T09:01:39.109Z,99.63
2018-12-31T09:03:44.437Z,100.93
2018-12-31T09:05:50.018Z,114.13
2018-12-31T09:07:55.133Z,95.60
2018-12-31T09:10:00.708Z,103.63
2018-12-31T09:12:06.140Z,101.30
2018-12-31T09:14:11.313Z,103.87
2018-12-31T09:16:16.615Z,108.50
2018-12-31T09:18:22.042Z,109.40
2018-12-31T09:20:28.433Z,98.90
2018-12-31T09:22:34.049Z,98.07
2018-12-31T09:24:44.624Z,90.83
2018-12-31T09:26:46.113Z,77.33
2018-12-31T09:28:51.529Z,106.60
2018-12-31T09:30:56.676Z,96.57
2018-12-31T09:33:05.231Z,92.50
2018-12-31T09:35:10.452Z,98.33
2018-12-31T09:37:15.503Z,100.23
2018-12-31T09:39:20.631Z,125.37
2018-12-31T09:41:25.615Z,85.97
2018-12-31T09:43:30.764Z,70.93
2018-12-31T09:45:36.156Z,82.77
2018-12-31T09:47:41.314Z,76.57
2018-12-31T09:49:46.391Z,76.33
2018-12-31T09:51:51.537Z,74.47
2018-12-31T09:53:56.676Z,77.80
2018-12-31T09:56:02.242Z,73.43
2018-12-31T09:58:08.017Z,73.77
2018-12-31T10:00:13.076Z,68.97
2018-12-31T10:02:18.677Z,77.43
2018-12-31T10:04:23.970Z,62.97
2018-12-31T10:06:29.755Z,63.27
2018-12-31T10:08:35.235Z,64.73
2018-12-31T10:10:40.390Z,66.83
2018-12-31T10:12:45.482Z,61.77
2018-12-31T10:14:50.566Z,74.03
2018-12-31T10:16:55.805Z,77.27
2018-12-31T10:19:01.040Z,65.00
2018-12-31T10:21:06.062Z,80.47
2018-12-31T10:23:11.533Z,73.90
2018-12-31T10:25:16.843Z,68.60
2018-12-31T10:27:22.201Z,71.07
2018-12-31T10:29:27.344Z,79.27
2018-12-31T10:31:32.841Z,77.03
2018-12-31T10:33:38.191Z,67.07
2018-12-31T10:35:43.401Z,61.90
2018-12-31T10:37:48.433Z,65.10
2018-12-31T10:39:54.167Z,67.40
2018-12-31T10:41:59.194Z,57.97
2018-12-31T10:44:04.465Z,74.77
2018-12-31T10:46:10.200Z,87.60
2018-12-31T10:48:15.252Z,104.70
2018-12-31T10:50:20.408Z,57.37
2018-12-31T10:52:25.942Z,68.97
2018-12-31T10:54:31.029Z,55.07
2018-12-31T10:56:36.229Z,66.23
2018-12-31T10:58:41.720Z,57.17
2018-12-31T11:00:46.895Z,70.90
2018-12-31T11:02:52.237Z,66.50
2018-12-31T11:04:57.597Z,54.13
2018-12-31T11:07:03.318Z,54.37
2018-12-31T11:09:08.572Z,72.37
2018-12-31T11:11:13.704Z,109.77
2018-12-31T11:13:18.761Z,77.57
2018-12-31T11:15:23.871Z,55.90
2018-12-31T11:17:28.976Z,54.00
2018-12-31T11:19:34.519Z,55.13
2018-12-31T11:21:39.995Z,57.13
2018-12-31T11:23:45.255Z,58.90
2018-12-31T11:25:50.174Z,62.37
2018-12-31T11:27:55.173Z,64.47
2018-12-31T11:30:00.429Z,46.80
2018-12-31T11:32:05.629Z,62.77
2018-12-31T11:34:10.555Z,49.03
2018-12-31T11:36:15.727Z,50.80
2018-12-31T11:38:21.024Z,49.43
2018-12-31T11:40:26.183Z,56.47
2018-12-31T11:42:31.198Z,62.03
2018-12-31T11:44:36.472Z,58.93
2018-12-31T11:46:41.685Z,81.63
2018-12-31T11:48:47.074Z,56.30
2018-12-31T11:50:52.456Z,55.70
2018-12-31T11:52:57.863Z,61.17
2018-12-31T11:55:03.577Z,43.20
2018-12-31T11:57:09.165Z,52.30
2018-12-31T11:59:14.372Z,53.93
2018-12-31T12:01:19.577Z,51.93
2018-12-31T12:03:25.591Z,50.73
2018-12-31T12:05:31.015Z,51.27
2018-12-31T12:07:37.062Z,50.13
2018-12-31T12:09:42.824Z,49.13
2018-12-31T12:11:49.662Z,52.03
2018-12-31T12:13:56.446Z,48.43
2018-12-31T12:16:02.367Z,50.97
2018-12-31T12:18:07.593Z,56.60
2018-12-31T12:20:12.955Z,44.60
2018-12-31T12:22:18.178Z,44.37
2018-12-31T12:24:23.746Z,52.77
2018-12-31T12:26:28.982Z,46.53
2018-12-31T12:28:34.112Z,43.87
2018-12-31T12:30:39.703Z,46.50
2018-12-31T12:32:44.842Z,67.30
2018-12-31T12:35:00.243Z,63.33
2018-12-31T12:37:06.637Z,62.10
2018-12-31T12:39:12.343Z,65.50
2018-12-31T12:41:18.207Z,59.83
2018-12-31T12:43:24.009Z,59.80
2018-12-31T12:45:29.376Z,64.43
2018-12-31T12:47:34.837Z,62.93
2018-12-31T12:49:42.326Z,49.30
2018-12-31T12:51:47.703Z,51.87
2018-12-31T12:53:53.094Z,51.80
2018-12-31T12:55:58.771Z,53.97
2018-12-31T12:58:04.290Z,65.93
2018-12-31T13:00:09.579Z,61.63
2018-12-31T13:02:14.949Z,47.30
2018-12-31T13:04:20.124Z,52.57
2018-12-31T13:06:25.366Z,50.47
2018-12-31T13:08:30.480Z,45.27
2018-12-31T13:10:36.794Z,45.93
2018-12-31T13:12:41.961Z,50.80
2018-12-31T13:14:47.193Z,46.93
2018-12-31T13:16:52.351Z,53.03
2018-12-31T13:18:58.114Z,53.73
2018-12-31T13:21:03.378Z,52.30
2018-12-31T13:23:08.963Z,60.13
2018-12-31T13:25:19.263Z,41.93
2018-12-31T13:27:24.573Z,40.90
2018-12-31T13:29:30.087Z,48.53
2018-12-31T13:31:35.704Z,55.83
2018-12-31T13:33:43.049Z,39.60
2018-12-31T13:35:49.089Z,38.10
2018-12-31T13:37:55.214Z,42.30
2018-12-31T13:40:02.487Z,43.00
2018-12-31T13:42:07.934Z,48.23
2018-12-31T13:44:14.599Z,54.60
2018-12-31T13:46:20.255Z,45.07
2018-12-31T13:48:26.122Z,41.50
2018-12-31T13:50:31.823Z,47.03
2018-12-31T13:52:37.328Z,41.17
2018-12-31T13:54:49.367Z,47.63
2018-12-31T13:56:54.842Z,45.50
2018-12-31T13:58:59.960Z,46.00
2018-12-31T14:01:05.341Z,44.43
2018-12-31T14:03:17.193Z,48.00
2018-12-31T14:05:17.403Z,46.47
2018-12-31T14:07:22.779Z,45.33
2018-12-31T14:09:28.002Z,47.13
2018-12-31T14:11:35.610Z,42.13
2018-12-31T14:13:40.916Z,53.03
2018-12-31T14:15:46.092Z,44.87
2018-12-31T14:17:51.295Z,41.40
2018-12-31T14:19:56.434Z,47.87
2018-12-31T14:22:03.378Z,51.23
2018-12-31T14:24:08.551Z,48.87
2018-12-31T14:26:14.677Z,41.53
2018-12-31T14:28:19.703Z,49.90
2018-12-31T14:30:25.383Z,45.23
2018-12-31T14:32:30.484Z,41.63
2018-12-31T14:34:35.657Z,55.20
2018-12-31T14:36:40.924Z,46.80
2018-12-31T14:38:46.375Z,47.90
2018-12-31T14:40:51.668Z,46.80
2018-12-31T14:42:56.940Z,52.20
2018-12-31T14:45:03.184Z,51.77
2018-12-31T14:47:08.412Z,43.30
2018-12-31T14:49:14.874Z,46.40
2018-12-31T14:51:20.025Z,48.63
2018-12-31T14:53:24.847Z,40.87
2018-12-31T14:55:30.909Z,40.70
2018-12-31T14:57:36.267Z,40.47
2018-12-31T14:59:41.914Z,41.93
2018-12-31T15:01:47.566Z,53.83
2018-12-31T15:03:52.767Z,48.13
2018-12-31T15:05:57.844Z,44.13
2018-12-31T15:08:03.357Z,56.10
2018-12-31T15:10:09.020Z,48.00
2018-12-31T15:12:14.626Z,47.53
2018-12-31T15:14:20.224Z,56.63
2018-12-31T15:16:25.303Z,46.97
2018-12-31T15:18:30.994Z,48.30
2018-12-31T15:20:36.089Z,47.50
2018-12-31T15:22:41.812Z,48.93
2018-12-31T15:24:47.067Z,55.77
2018-12-31T15:26:52.209Z,47.53
2018-12-31T15:28:57.948Z,48.00
2018-12-31T15:31:03.075Z,48.00
2018-12-31T15:33:08.250Z,47.17
2018-12-31T15:35:13.617Z,46.43
2018-12-31T15:37:18.999Z,46.37
2018-12-31T15:39:24.579Z,53.70
2018-12-31T15:41:30.332Z,51.33
2018-12-31T15:43:35.302Z,48.57
2018-12-31T15:45:40.493Z,44.70
2018-12-31T15:47:46.067Z,46.40
2018-12-31T15:49:51.383Z,41.93
2018-12-31T15:51:57.310Z,49.80
2018-12-31T15:54:02.511Z,48.37
2018-12-31T15:56:07.620Z,55.63
2018-12-31T15:58:12.974Z,46.57
2018-12-31T16:00:18.105Z,41.70
2018-12-31T16:02:23.676Z,43.70
2018-12-31T16:04:28.917Z,48.93
2018-12-31T16:06:34.051Z,41.50
2018-12-31T16:08:39.196Z,51.10
2018-12-31T16:10:44.472Z,53.83
2018-12-31T16:12:49.666Z,41.83
2018-12-31T16:14:54.829Z,49.20
2018-12-31T16:16:59.915Z,47.33
2018-12-31T16:19:05.834Z,40.63
2018-12-31T16:21:11.200Z,42.90
2018-12-31T16:23:16.924Z,55.90
2018-12-31T16:25:22.382Z,44.00
2018-12-31T16:27:27.803Z,45.53
2018-12-31T16:29:33.233Z,41.23
2018-12-31T16:31:39.032Z,49.37
2018-12-31T16:33:44.447Z,48.90
2018-12-31T16:35:50.057Z,44.53
2018-12-31T16:37:55.259Z,48.47
2018-12-31T16:40:01.526Z,56.47
2018-12-31T16:42:06.952Z,55.50
2018-12-31T16:44:12.664Z,58.10
2018-12-31T16:46:17.971Z,60.10
2018-12-31T16:48:23.383Z,65.73
2018-12-31T16:50:28.927Z,58.07
2018-12-31T16:52:34.049Z,63.00
2018-12-31T16:54:41.902Z,65.13
2018-12-31T16:56:52.979Z,64.73
2018-12-31T16:58:58.282Z,53.73
2018-12-31T17:01:03.853Z,59.43
2018-12-31T17:03:11.561Z,67.33
2018-12-31T17:05:17.672Z,59.60
2018-12-31T17:07:28.139Z,43.47
2018-12-31T17:09:37.882Z,48.93
2018-12-31T17:11:43.200Z,39.90
2018-12-31T17:13:48.872Z,42.93
2018-12-31T17:15:54.266Z,44.93
2018-12-31T17:17:59.474Z,51.50
2018-12-31T17:20:04.862Z,50.30
2018-12-31T17:22:10.229Z,44.90
2018-12-31T17:24:15.489Z,43.20
2018-12-31T17:26:20.797Z,50.90
2018-12-31T17:28:26.513Z,38.37
2018-12-31T17:30:31.683Z,45.63
2018-12-31T17:32:37.531Z,41.80
2018-12-31T17:34:42.643Z,45.73
2018-12-31T17:36:47.878Z,44.50
2018-12-31T17:38:53.068Z,33.20
2018-12-31T17:40:58.249Z,48.90
2018-12-31T17:43:03.863Z,41.80
2018-12-31T17:45:09.777Z,34.00
2018-12-31T17:47:14.878Z,43.70
2018-12-31T17:49:20.006Z,41.57
2018-12-31T17:51:25.055Z,45.10
2018-12-31T17:53:30.247Z,45.33
2018-12-31T17:55:35.578Z,41.13
2018-12-31T17:57:40.943Z,43.67
2018-12-31T17:59:46.647Z,52.67
2018-12-31T18:01:51.781Z,53.93
2018-12-31T18:03:58.373Z,52.37
2018-12-31T18:06:03.790Z,53.03
2018-12-31T18:08:09.077Z,60.03
2018-12-31T18:15:02.860Z,57.87
2018-12-31T18:17:14.304Z,53.97
2018-12-31T18:26:14.501Z,63.80
2018-12-31T18:29:01.561Z,59.50
2018-12-31T18:31:06.352Z,65.27
2018-12-31T18:33:11.052Z,61.53
2018-12-31T18:35:15.810Z,71.30
2018-12-31T18:37:21.062Z,68.47
2018-12-31T18:39:25.851Z,62.70
2018-12-31T18:41:30.642Z,67.37
2018-12-31T18:43:35.682Z,70.90
2018-12-31T18:45:40.519Z,68.83
2018-12-31T18:47:45.684Z,72.17
2018-12-31T18:49:50.421Z,65.97
2018-12-31T18:51:55.872Z,74.73
2018-12-31T18:54:00.983Z,67.57
2018-12-31T18:56:05.907Z,75.30
2018-12-31T18:58:10.659Z,64.90
2018-12-31T19:00:15.458Z,59.33
2018-12-31T19:02:20.218Z,56.53
2018-12-31T19:04:24.997Z,58.70
2018-12-31T19:06:30.140Z,72.70
2018-12-31T19:08:34.971Z,60.83
2018-12-31T19:10:39.806Z,61.67
2018-12-31T19:12:44.585Z,52.57
2018-12-31T19:14:49.500Z,62.73
2018-12-31T19:16:54.248Z,56.37
2018-12-31T19:18:59.031Z,59.03
2018-12-31T19:21:04.334Z,56.20
2018-12-31T19:23:09.074Z,66.63
2018-12-31T19:25:13.877Z,63.40
2018-12-31T19:27:19.099Z,73.37
2018-12-31T19:29:23.956Z,74.10
2018-12-31T19:31:29.390Z,68.37
2018-12-31T19:33:34.537Z,60.63
2018-12-31T19:35:39.657Z,62.00
2018-12-31T19:37:44.563Z,60.87
2018-12-31T19:39:49.829Z,64.90
2018-12-31T19:41:54.545Z,55.13
2018-12-31T19:43:59.325Z,59.37
2018-12-31T19:46:04.568Z,57.80
2018-12-31T19:48:09.364Z,55.43
2018-12-31T19:50:14.563Z,62.70
2018-12-31T19:52:19.408Z,56.53
2018-12-31T19:54:24.225Z,52.53
2018-12-31T19:56:29.004Z,58.87
2018-12-31T19:58:34.153Z,51.63
2018-12-31T20:00:38.913Z,54.20
2018-12-31T20:02:43.651Z,58.17
2018-12-31T20:04:48.476Z,57.13
2018-12-31T20:07:01.039Z,74.97
2018-12-31T20:09:00.756Z,52.27
2018-12-31T20:11:05.911Z,50.00
2018-12-31T20:13:10.652Z,57.13
2018-12-31T20:15:15.389Z,50.87
2018-12-31T20:17:20.081Z,53.23
2018-12-31T20:19:25.238Z,53.73
2018-12-31T20:21:29.972Z,61.70
2018-12-31T20:23:34.720Z,50.13
2018-12-31T20:25:39.634Z,57.33
2018-12-31T20:27:44.437Z,51.60
2018-12-31T20:29:49.311Z,56.63
2018-12-31T20:31:54.034Z,54.77
2018-12-31T20:33:58.784Z,53.67
2018-12-31T20:36:03.523Z,60.20
2018-12-31T20:38:08.378Z,46.97
2018-12-31T20:40:13.141Z,51.97
2018-12-31T20:42:17.998Z,59.80
2018-12-31T20:44:22.784Z,68.70
2018-12-31T20:46:27.585Z,57.70
2018-12-31T20:48:35.058Z,61.80
2018-12-31T20:50:39.784Z,61.33
2018-12-31T20:52:44.556Z,63.53
2018-12-31T20:54:49.342Z,71.33
2018-12-31T20:56:54.503Z,59.13
2018-12-31T20:58:59.636Z,61.43
2018-12-31T21:01:04.582Z,56.73
2018-12-31T21:03:09.322Z,58.03
2018-12-31T21:05:14.097Z,58.60
2018-12-31T21:07:18.879Z,60.50
2018-12-31T21:09:24.011Z,63.87
2018-12-31T21:11:28.726Z,60.53
2018-12-31T21:13:33.479Z,66.67
2018-12-31T21:15:38.240Z,74.63
2018-12-31T21:17:43.374Z,58.40
2018-12-31T21:19:48.519Z,65.10
2018-12-31T21:21:53.258Z,62.13
2018-12-31T21:23:57.982Z,62.97
2018-12-31T21:26:03.911Z,72.83
2018-12-31T21:28:08.698Z,65.60
2018-12-31T21:30:15.458Z,72.47
2018-12-31T21:32:20.210Z,72.17
2018-12-31T21:34:25.037Z,72.33
2018-12-31T21:36:29.811Z,62.83
2018-12-31T21:38:34.957Z,58.70
2018-12-31T21:40:42.950Z,65.10
2018-12-31T21:42:48.476Z,82.07
2018-12-31T21:44:53.211Z,75.40
2018-12-31T21:46:58.364Z,65.10
2018-12-31T21:49:03.163Z,83.70
2018-12-31T21:51:07.874Z,74.43
2018-12-31T21:53:13.547Z,63.53
2018-12-31T21:55:18.278Z,69.20
2018-12-31T21:57:23.523Z,64.03
2018-12-31T21:59:28.710Z,62.17
2018-12-31T22:01:33.443Z,56.50
2018-12-31T22:03:38.263Z,65.03
2018-12-31T22:05:42.987Z,58.23
2018-12-31T22:07:47.668Z,59.17
2018-12-31T22:09:52.470Z,49.87
2018-12-31T22:11:58.009Z,55.20
2018-12-31T22:14:03.274Z,51.40
2018-12-31T22:16:08.117Z,55.00
2018-12-31T22:18:13.157Z,50.07
2018-12-31T22:20:17.925Z,55.80
2018-12-31T22:22:22.675Z,51.47
2018-12-31T22:24:27.858Z,45.47
2018-12-31T22:26:32.984Z,50.97
2018-12-31T22:28:38.145Z,55.10
2018-12-31T22:30:42.958Z,52.37
2018-12-31T22:32:47.980Z,54.03
2018-12-31T22:34:52.752Z,49.50
2018-12-31T22:36:57.504Z,53.40
2018-12-31T22:39:02.246Z,57.50
2018-12-31T22:41:07.111Z,45.90
2018-12-31T22:43:11.834Z,48.00
2018-12-31T22:45:17.423Z,54.30
2018-12-31T22:47:22.179Z,46.23
2018-12-31T22:49:27.374Z,49.77
2018-12-31T22:51:32.505Z,49.07
2018-12-31T22:53:45.717Z,47.37
2018-12-31T22:55:50.580Z,49.73
2018-12-31T22:57:57.754Z,49.80
2018-12-31T23:00:02.560Z,44.80
2018-12-31T23:02:07.807Z,55.70
2018-12-31T23:04:12.900Z,51.33
2018-12-31T23:06:17.673Z,108.20
2018-12-31T23:08:22.797Z,216.40
2018-12-31T23:10:27.753Z,216.10
2018-12-31T23:12:32.905Z,195.10
2018-12-31T23:14:38.402Z,192.27
2018-12-31T23:16:47.077Z,158.43
2018-12-31T23:18:51.791Z,133.20
2018-12-31T23:20:56.960Z,86.60
2018-12-31T23:23:01.682Z,77.63
2018-12-31T23:25:07.859Z,78.30
2018-12-31T23:27:12.961Z,89.70
2018-12-31T23:29:17.663Z,78.30
2018-12-31T23:31:22.943Z,85.47
2018-12-31T23:33:28.045Z,87.47
2018-12-31T23:35:32.830Z,88.63
2018-12-31T23:37:39.200Z,107.33
2018-12-31T23:39:43.941Z,112.30
2018-12-31T23:41:49.770Z,100.80
2018-12-31T23:43:54.544Z,111.83
2018-12-31T23:45:59.699Z,110.87
2018-12-31T23:48:06.487Z,104.30
2018-12-31T23:50:12.014Z,115.83
2018-12-31T23:52:20.126Z,120.90
2018-12-31T23:54:25.271Z,118.00
2018-12-31T23:56:30.782Z,123.63
2018-12-31T23:58:35.507Z,128.77
